sensor_id;sensor_type;location;lat;lon;timestamp;pressure;altitude;pressure_sealevel;temperature;humidity
70133;BME280;57495;49.922;7.966;2023-09-07T00:00:19;100213.69;;;18.48;94.35
70133;BME280;57495;49.922;7.966;2023-09-07T00:02:20;100216.69;;;18.53;94.25
70133;BME280;57495;49.922;7.966;2023-09-07T00:04:22;100204.69;;;18.62;93.50
70133;BME280;57495;49.922;7.966;2023-09-07T00:06:23;100212.09;;;18.53;94.46
70133;BME280;57495;49.922;7.966;2023-09-07T00:08:24;100208.47;;;18.46;94.57
70133;BME280;57495;49.922;7.966;2023-09-07T00:10:27;100207.91;;;18.51;93.16
70133;BME280;57495;49.922;7.966;2023-09-07T00:12:29;100207.81;;;18.44;93.92
70133;BME280;57495;49.922;7.966;2023-09-07T00:14:30;100207.72;;;18.38;97.40
70133;BME280;57495;49.922;7.966;2023-09-07T00:16:32;100205.59;;;18.33;98.77
70133;BME280;57495;49.922;7.966;2023-09-07T00:18:34;100208.19;;;18.26;94.95
70133;BME280;57495;49.922;7.966;2023-09-07T00:20:35;100206.91;;;18.22;95.36
70133;BME280;57495;49.922;7.966;2023-09-07T00:22:37;100206.25;;;18.20;96.57
70133;BME280;57495;49.922;7.966;2023-09-07T00:24:38;100205.31;;;18.13;97.37
70133;BME280;57495;49.922;7.966;2023-09-07T00:26:41;100207.75;;;17.93;98.18
70133;BME280;57495;49.922;7.966;2023-09-07T00:28:43;100201.97;;;18.11;97.40
70133;BME280;57495;49.922;7.966;2023-09-07T00:30:44;100205.16;;;18.00;97.01
70133;BME280;57495;49.922;7.966;2023-09-07T00:32:45;100202.44;;;18.00;97.89
70133;BME280;57495;49.922;7.966;2023-09-07T00:34:46;100202.97;;;18.10;97.88
70133;BME280;57495;49.922;7.966;2023-09-07T00:36:48;100205.22;;;17.91;98.12
70133;BME280;57495;49.922;7.966;2023-09-07T00:38:49;100200.69;;;18.07;98.04
70133;BME280;57495;49.922;7.966;2023-09-07T00:40:50;100215.69;;;17.94;98.14
70133;BME280;57495;49.922;7.966;2023-09-07T00:42:53;100197.69;;;18.02;97.92
70133;BME280;57495;49.922;7.966;2023-09-07T00:44:55;100209.16;;;18.04;96.39
70133;BME280;57495;49.922;7.966;2023-09-07T00:46:56;100204.78;;;18.03;96.17
70133;BME280;57495;49.922;7.966;2023-09-07T00:48:57;100206.75;;;18.09;95.57
70133;BME280;57495;49.922;7.966;2023-09-07T00:50:59;100208.97;;;18.05;94.75
70133;BME280;57495;49.922;7.966;2023-09-07T00:53:00;100201.22;;;18.02;97.29
70133;BME280;57495;49.922;7.966;2023-09-07T00:55:03;100201.03;;;18.04;95.96
70133;BME280;57495;49.922;7.966;2023-09-07T00:57:05;100208.97;;;18.05;95.76
70133;BME280;57495;49.922;7.966;2023-09-07T00:59:09;100202.44;;;18.14;96.63
70133;BME280;57495;49.922;7.966;2023-09-07T01:01:13;100199.09;;;18.12;97.01
70133;BME280;57495;49.922;7.966;2023-09-07T01:03:14;100206.09;;;18.07;95.90
70133;BME280;57495;49.922;7.966;2023-09-07T01:05:16;100196.88;;;17.78;96.41
70133;BME280;57495;49.922;7.966;2023-09-07T01:07:17;100198.38;;;17.66;97.71
70133;BME280;57495;49.922;7.966;2023-09-07T01:09:23;100191.59;;;17.70;97.54
70133;BME280;57495;49.922;7.966;2023-09-07T01:11:25;100197.63;;;17.72;96.07
70133;BME280;57495;49.922;7.966;2023-09-07T01:13:27;100194.28;;;17.70;95.00
70133;BME280;57495;49.922;7.966;2023-09-07T01:15:29;100193.22;;;17.56;96.06
70133;BME280;57495;49.922;7.966;2023-09-07T01:17:32;100192.09;;;17.50;98.51
70133;BME280;57495;49.922;7.966;2023-09-07T01:19:34;100192.41;;;17.55;99.58
70133;BME280;57495;49.922;7.966;2023-09-07T01:21:38;100194.47;;;17.30;100.00
70133;BME280;57495;49.922;7.966;2023-09-07T01:23:41;100194.25;;;17.40;100.00
70133;BME280;57495;49.922;7.966;2023-09-07T01:25:43;100188.84;;;17.40;100.00
70133;BME280;57495;49.922;7.966;2023-09-07T01:27:45;100191.97;;;17.29;100.00
70133;BME280;57495;49.922;7.966;2023-09-07T01:29:47;100197.22;;;17.45;99.41
70133;BME280;57495;49.922;7.966;2023-09-07T01:31:49;100192.19;;;17.42;97.04
70133;BME280;57495;49.922;7.966;2023-09-07T01:33:49;100196.28;;;17.38;95.51
70133;BME280;57495;49.922;7.966;2023-09-07T01:35:51;100196.16;;;17.31;100.00
70133;BME280;57495;49.922;7.966;2023-09-07T01:37:53;100195.50;;;17.06;100.00
70133;BME280;57495;49.922;7.966;2023-09-07T01:39:55;100198.22;;;17.06;100.00
70133;BME280;57495;49.922;7.966;2023-09-07T01:41:56;100194.59;;;16.99;100.00
70133;BME280;57495;49.922;7.966;2023-09-07T01:43:58;100195.28;;;16.93;100.00
70133;BME280;57495;49.922;7.966;2023-09-07T01:45:59;100186.47;;;16.99;100.00
70133;BME280;57495;49.922;7.966;2023-09-07T01:48:01;100187.84;;;16.95;100.00
70133;BME280;57495;49.922;7.966;2023-09-07T01:50:03;100181.91;;;16.99;100.00
70133;BME280;57495;49.922;7.966;2023-09-07T01:52:05;100185.91;;;16.80;100.00
70133;BME280;57495;49.922;7.966;2023-09-07T01:54:08;100185.03;;;16.88;100.00
70133;BME280;57495;49.922;7.966;2023-09-07T01:56:10;100178.50;;;16.74;100.00
70133;BME280;57495;49.922;7.966;2023-09-07T01:58:10;100182.81;;;16.92;100.00
70133;BME280;57495;49.922;7.966;2023-09-07T02:00:12;100182.50;;;16.87;100.00
70133;BME280;57495;49.922;7.966;2023-09-07T02:02:14;100183.09;;;16.97;100.00
70133;BME280;57495;49.922;7.966;2023-09-07T02:04:14;100178.66;;;17.04;100.00
70133;BME280;57495;49.922;7.966;2023-09-07T02:06:16;100176.09;;;16.79;99.74
70133;BME280;57495;49.922;7.966;2023-09-07T02:08:17;100177.09;;;16.87;100.00
70133;BME280;57495;49.922;7.966;2023-09-07T02:10:20;100175.44;;;16.77;100.00
70133;BME280;57495;49.922;7.966;2023-09-07T02:12:20;100180.94;;;16.61;100.00
70133;BME280;57495;49.922;7.966;2023-09-07T02:14:22;100181.03;;;16.76;100.00
70133;BME280;57495;49.922;7.966;2023-09-07T02:16:23;100181.84;;;16.76;99.86
70133;BME280;57495;49.922;7.966;2023-09-07T02:18:25;100186.59;;;16.74;98.27
70133;BME280;57495;49.922;7.966;2023-09-07T02:20:26;100183.47;;;16.62;100.00
70133;BME280;57495;49.922;7.966;2023-09-07T02:22:28;100185.59;;;16.75;99.33
70133;BME280;57495;49.922;7.966;2023-09-07T02:24:29;100185.34;;;16.62;100.00
70133;BME280;57495;49.922;7.966;2023-09-07T02:26:32;100184.97;;;16.65;100.00
70133;BME280;57495;49.922;7.966;2023-09-07T02:28:34;100192.75;;;16.60;100.00
70133;BME280;57495;49.922;7.966;2023-09-07T02:30:35;100186.13;;;16.39;100.00
70133;BME280;57495;49.922;7.966;2023-09-07T02:32:36;100179.06;;;16.38;100.00
70133;BME280;57495;49.922;7.966;2023-09-07T02:34:37;100186.50;;;16.36;100.00
70133;BME280;57495;49.922;7.966;2023-09-07T02:36:39;100181.78;;;16.30;100.00
70133;BME280;57495;49.922;7.966;2023-09-07T02:38:40;100176.19;;;16.40;100.00
70133;BME280;57495;49.922;7.966;2023-09-07T02:40:42;100179.06;;;16.38;100.00
70133;BME280;57495;49.922;7.966;2023-09-07T02:42:45;100184.94;;;16.42;99.58
70133;BME280;57495;49.922;7.966;2023-09-07T02:44:46;100174.97;;;16.42;100.00
70133;BME280;57495;49.922;7.966;2023-09-07T02:46:48;100176.69;;;16.35;98.31
70133;BME280;57495;49.922;7.966;2023-09-07T02:48:49;100178.69;;;16.41;100.00
70133;BME280;57495;49.922;7.966;2023-09-07T02:50:51;100179.00;;;16.47;100.00
70133;BME280;57495;49.922;7.966;2023-09-07T02:52:52;100174.25;;;16.49;99.57
70133;BME280;57495;49.922;7.966;2023-09-07T02:54:53;100176.69;;;16.43;99.56
70133;BME280;57495;49.922;7.966;2023-09-07T02:56:55;100184.47;;;16.38;100.00
70133;BME280;57495;49.922;7.966;2023-09-07T02:58:58;100179.38;;;16.43;100.00
70133;BME280;57495;49.922;7.966;2023-09-07T03:00:59;100190.47;;;16.49;100.00
70133;BME280;57495;49.922;7.966;2023-09-07T03:03:01;100185.94;;;16.49;99.67
70133;BME280;57495;49.922;7.966;2023-09-07T03:05:03;100184.69;;;16.29;100.00
70133;BME280;57495;49.922;7.966;2023-09-07T03:07:04;100179.47;;;16.19;100.00
70133;BME280;57495;49.922;7.966;2023-09-07T03:09:06;100182.94;;;15.96;100.00
70133;BME280;57495;49.922;7.966;2023-09-07T03:11:09;100181.94;;;15.97;100.00
70133;BME280;57495;49.922;7.966;2023-09-07T03:13:11;100179.75;;;15.93;100.00
70133;BME280;57495;49.922;7.966;2023-09-07T03:15:13;100181.78;;;15.91;100.00
70133;BME280;57495;49.922;7.966;2023-09-07T03:17:16;100180.25;;;15.96;100.00
70133;BME280;57495;49.922;7.966;2023-09-07T03:19:17;100189.84;;;15.99;100.00
70133;BME280;57495;49.922;7.966;2023-09-07T03:21:19;100183.81;;;15.89;100.00
70133;BME280;57495;49.922;7.966;2023-09-07T03:23:20;100178.53;;;15.95;100.00
70133;BME280;57495;49.922;7.966;2023-09-07T03:25:21;100181.25;;;15.95;100.00
70133;BME280;57495;49.922;7.966;2023-09-07T03:27:22;100178.41;;;15.89;100.00
70133;BME280;57495;49.922;7.966;2023-09-07T03:29:23;100176.56;;;15.89;100.00
70133;BME280;57495;49.922;7.966;2023-09-07T03:31:26;100178.03;;;16.00;100.00
70133;BME280;57495;49.922;7.966;2023-09-07T03:33:26;100172.47;;;16.01;100.00
70133;BME280;57495;49.922;7.966;2023-09-07T03:35:28;100175.56;;;15.82;100.00
70133;BME280;57495;49.922;7.966;2023-09-07T03:37:29;100171.97;;;15.98;100.00
70133;BME280;57495;49.922;7.966;2023-09-07T03:39:31;100175.25;;;15.77;100.00
70133;BME280;57495;49.922;7.966;2023-09-07T03:41:32;100177.94;;;15.85;100.00
70133;BME280;57495;49.922;7.966;2023-09-07T03:43:34;100176.44;;;15.74;100.00
70133;BME280;57495;49.922;7.966;2023-09-07T03:45:35;100173.22;;;15.79;100.00
70133;BME280;57495;49.922;7.966;2023-09-07T03:47:38;100176.94;;;15.78;100.00
70133;BME280;57495;49.922;7.966;2023-09-07T03:49:39;100174.22;;;15.78;100.00
70133;BME280;57495;49.922;7.966;2023-09-07T03:51:41;100180.28;;;15.88;100.00
70133;BME280;57495;49.922;7.966;2023-09-07T03:53:42;100172.38;;;15.78;100.00
70133;BME280;57495;49.922;7.966;2023-09-07T03:55:44;100185.03;;;15.61;100.00
70133;BME280;57495;49.922;7.966;2023-09-07T03:57:46;100178.63;;;15.54;100.00
70133;BME280;57495;49.922;7.966;2023-09-07T03:59:47;100185.38;;;15.58;100.00
70133;BME280;57495;49.922;7.966;2023-09-07T04:01:48;100184.88;;;15.46;100.00
70133;BME280;57495;49.922;7.966;2023-09-07T04:03:51;100185.91;;;15.45;100.00
70133;BME280;57495;49.922;7.966;2023-09-07T04:05:52;100182.19;;;15.46;100.00
70133;BME280;57495;49.922;7.966;2023-09-07T04:07:54;100180.31;;;15.47;100.00
70133;BME280;57495;49.922;7.966;2023-09-07T04:09:55;100180.19;;;15.40;100.00
70133;BME280;57495;49.922;7.966;2023-09-07T04:11:56;100177.63;;;15.47;100.00
70133;BME280;57495;49.922;7.966;2023-09-07T04:13:58;100188.44;;;15.39;100.00
70133;BME280;57495;49.922;7.966;2023-09-07T04:15:59;100181.34;;;15.46;100.00
70133;BME280;57495;49.922;7.966;2023-09-07T04:18:00;100190.78;;;15.42;100.00
70133;BME280;57495;49.922;7.966;2023-09-07T04:20:04;100189.09;;;15.49;100.00
70133;BME280;57495;49.922;7.966;2023-09-07T04:22:06;100185.56;;;15.32;100.00
70133;BME280;57495;49.922;7.966;2023-09-07T04:24:08;100187.09;;;15.35;100.00
70133;BME280;57495;49.922;7.966;2023-09-07T04:26:10;100188.09;;;15.25;100.00
70133;BME280;57495;49.922;7.966;2023-09-07T04:28:11;100177.97;;;15.36;100.00
70133;BME280;57495;49.922;7.966;2023-09-07T04:30:13;100185.25;;;15.27;100.00
70133;BME280;57495;49.922;7.966;2023-09-07T04:32:14;100183.72;;;15.33;100.00
70133;BME280;57495;49.922;7.966;2023-09-07T04:34:15;100187.75;;;15.28;100.00
70133;BME280;57495;49.922;7.966;2023-09-07T04:36:18;100187.09;;;15.35;100.00
70133;BME280;57495;49.922;7.966;2023-09-07T04:38:20;100186.25;;;15.18;100.00
70133;BME280;57495;49.922;7.966;2023-09-07T04:40:22;100187.75;;;15.28;100.00
70133;BME280;57495;49.922;7.966;2023-09-07T04:42:23;100186.59;;;15.31;100.00
70133;BME280;57495;49.922;7.966;2023-09-07T04:44:25;100189.78;;;15.35;100.00
70133;BME280;57495;49.922;7.966;2023-09-07T04:46:27;100185.75;;;15.31;100.00
70133;BME280;57495;49.922;7.966;2023-09-07T04:48:28;100191.16;;;15.31;100.00
70133;BME280;57495;49.922;7.966;2023-09-07T04:50:29;100187.94;;;15.35;100.00
70133;BME280;57495;49.922;7.966;2023-09-07T04:52:32;100189.78;;;15.18;100.00
70133;BME280;57495;49.922;7.966;2023-09-07T04:54:35;100188.63;;;15.13;100.00
70133;BME280;57495;49.922;7.966;2023-09-07T04:56:36;100196.84;;;15.11;100.00
70133;BME280;57495;49.922;7.966;2023-09-07T04:58:37;100197.53;;;15.05;100.00
70133;BME280;57495;49.922;7.966;2023-09-07T05:00:39;100198.56;;;15.12;100.00
70133;BME280;57495;49.922;7.966;2023-09-07T05:02:40;100200.56;;;15.10;100.00
70133;BME280;57495;49.922;7.966;2023-09-07T05:04:43;100197.88;;;15.18;100.00
70133;BME280;57495;49.922;7.966;2023-09-07T05:06:45;100206.94;;;15.17;100.00
70133;BME280;57495;49.922;7.966;2023-09-07T05:08:47;100201.91;;;15.14;100.00
70133;BME280;57495;49.922;7.966;2023-09-07T05:10:49;100204.94;;;15.03;100.00
70133;BME280;57495;49.922;7.966;2023-09-07T05:12:49;100201.41;;;15.11;100.00
70133;BME280;57495;49.922;7.966;2023-09-07T05:14:51;100204.28;;;15.09;100.00
70133;BME280;57495;49.922;7.966;2023-09-07T05:16:53;100210.00;;;15.14;100.00
70133;BME280;57495;49.922;7.966;2023-09-07T05:18:56;100198.72;;;15.19;100.00
70133;BME280;57495;49.922;7.966;2023-09-07T05:20:57;100204.44;;;15.24;100.00
70133;BME280;57495;49.922;7.966;2023-09-07T05:22:59;100211.03;;;15.21;100.00
70133;BME280;57495;49.922;7.966;2023-09-07T05:25:02;100210.34;;;15.27;100.00
70133;BME280;57495;49.922;7.966;2023-09-07T05:27:04;100215.56;;;15.29;100.00
70133;BME280;57495;49.922;7.966;2023-09-07T05:29:06;100216.38;;;15.13;100.00
70133;BME280;57495;49.922;7.966;2023-09-07T05:31:07;100221.44;;;15.16;100.00
70133;BME280;57495;49.922;7.966;2023-09-07T05:33:09;100214.72;;;15.20;100.00
70133;BME280;57495;49.922;7.966;2023-09-07T05:35:11;100219.56;;;15.25;100.00
70133;BME280;57495;49.922;7.966;2023-09-07T05:37:15;100225.31;;;15.22;100.00
70133;BME280;57495;49.922;7.966;2023-09-07T05:39:17;100227.19;;;15.21;100.00
70133;BME280;57495;49.922;7.966;2023-09-07T05:41:19;100224.13;;;15.24;100.00
70133;BME280;57495;49.922;7.966;2023-09-07T05:43:21;100222.97;;;15.27;100.00
70133;BME280;57495;49.922;7.966;2023-09-07T05:45:22;100219.56;;;15.25;100.00
70133;BME280;57495;49.922;7.966;2023-09-07T05:47:24;100226.31;;;15.21;100.00
70133;BME280;57495;49.922;7.966;2023-09-07T05:49:26;100228.88;;;15.31;100.00
70133;BME280;57495;49.922;7.966;2023-09-07T05:51:28;100233.06;;;15.41;100.00
70133;BME280;57495;49.922;7.966;2023-09-07T05:53:29;100225.66;;;15.52;100.00
70133;BME280;57495;49.922;7.966;2023-09-07T05:55:31;100228.84;;;15.55;100.00
70133;BME280;57495;49.922;7.966;2023-09-07T05:57:33;100236.06;;;15.71;100.00
70133;BME280;57495;49.922;7.966;2023-09-07T05:59:34;100239.44;;;15.90;100.00
70133;BME280;57495;49.922;7.966;2023-09-07T06:01:35;100241.56;;;16.11;100.00
70133;BME280;57495;49.922;7.966;2023-09-07T06:03:37;100241.66;;;16.34;100.00
70133;BME280;57495;49.922;7.966;2023-09-07T06:05:39;100233.72;;;16.32;100.00
70133;BME280;57495;49.922;7.966;2023-09-07T06:07:41;100244.03;;;16.68;100.00
70133;BME280;57495;49.922;7.966;2023-09-07T06:09:42;100246.25;;;16.96;100.00
70133;BME280;57495;49.922;7.966;2023-09-07T06:11:44;100239.66;;;16.98;100.00
70133;BME280;57495;49.922;7.966;2023-09-07T06:13:46;100235.69;;;17.09;100.00
70133;BME280;57495;49.922;7.966;2023-09-07T06:15:49;100240.38;;;17.15;100.00
70133;BME280;57495;49.922;7.966;2023-09-07T06:17:50;100240.03;;;17.18;100.00
70133;BME280;57495;49.922;7.966;2023-09-07T06:19:52;100240.91;;;17.34;100.00
70133;BME280;57495;49.922;7.966;2023-09-07T06:21:53;100240.13;;;17.48;100.00
70133;BME280;57495;49.922;7.966;2023-09-07T06:23:55;100236.91;;;17.68;100.00
70133;BME280;57495;49.922;7.966;2023-09-07T06:25:56;100233.56;;;17.81;100.00
70133;BME280;57495;49.922;7.966;2023-09-07T06:27:57;100233.94;;;17.77;100.00
70133;BME280;57495;49.922;7.966;2023-09-07T06:30:00;100241.16;;;17.85;100.00
70133;BME280;57495;49.922;7.966;2023-09-07T06:32:03;100242.16;;;17.84;100.00
70133;BME280;57495;49.922;7.966;2023-09-07T06:34:04;100238.38;;;17.93;100.00
70133;BME280;57495;49.922;7.966;2023-09-07T06:36:06;100240.63;;;18.05;100.00
70133;BME280;57495;49.922;7.966;2023-09-07T06:38:07;100234.28;;;18.12;100.00
70133;BME280;57495;49.922;7.966;2023-09-07T06:40:09;100234.91;;;18.29;99.53
70133;BME280;57495;49.922;7.966;2023-09-07T06:42:11;100235.94;;;18.28;98.19
70133;BME280;57495;49.922;7.966;2023-09-07T06:44:13;100235.84;;;18.22;98.84
70133;BME280;57495;49.922;7.966;2023-09-07T06:46:16;100242.47;;;18.34;98.01
70133;BME280;57495;49.922;7.966;2023-09-07T06:48:17;100248.63;;;18.43;99.17
70133;BME280;57495;49.922;7.966;2023-09-07T06:50:19;100247.41;;;18.45;99.25
70133;BME280;57495;49.922;7.966;2023-09-07T06:52:21;100247.22;;;18.47;100.00
70133;BME280;57495;49.922;7.966;2023-09-07T06:54:21;100247.84;;;18.49;100.00
70133;BME280;57495;49.922;7.966;2023-09-07T06:56:23;100248.50;;;18.66;100.00
70133;BME280;57495;49.922;7.966;2023-09-07T06:58:25;100246.31;;;18.76;100.00
70133;BME280;57495;49.922;7.966;2023-09-07T07:00:26;100242.31;;;18.87;100.00
70133;BME280;57495;49.922;7.966;2023-09-07T07:02:30;100243.16;;;19.09;100.00
70133;BME280;57495;49.922;7.966;2023-09-07T07:04:32;100249.16;;;19.04;100.00
70133;BME280;57495;49.922;7.966;2023-09-07T07:06:33;100253.22;;;19.15;100.00
70133;BME280;57495;49.922;7.966;2023-09-07T07:08:34;100255.75;;;19.17;100.00
70133;BME280;57495;49.922;7.966;2023-09-07T07:10:36;100255.66;;;19.25;100.00
70133;BME280;57495;49.922;7.966;2023-09-07T07:12:37;100251.47;;;19.50;99.33
70133;BME280;57495;49.922;7.966;2023-09-07T07:14:39;100253.69;;;19.62;98.60
70133;BME280;57495;49.922;7.966;2023-09-07T07:16:40;100247.31;;;19.76;97.63
70133;BME280;57495;49.922;7.966;2023-09-07T07:18:43;100246.41;;;19.91;96.92
70133;BME280;57495;49.922;7.966;2023-09-07T07:20:44;100248.19;;;20.12;97.40
70133;BME280;57495;49.922;7.966;2023-09-07T07:22:46;100251.66;;;20.34;97.59
70133;BME280;57495;49.922;7.966;2023-09-07T07:24:47;100241.28;;;20.44;97.74
70133;BME280;57495;49.922;7.966;2023-09-07T07:26:49;100240.88;;;20.47;95.61
70133;BME280;57495;49.922;7.966;2023-09-07T07:28:50;100246.31;;;20.54;94.90
70133;BME280;57495;49.922;7.966;2023-09-07T07:30:52;100243.47;;;20.69;97.27
70133;BME280;57495;49.922;7.966;2023-09-07T07:32:53;100248.53;;;20.78;94.82
70133;BME280;57495;49.922;7.966;2023-09-07T07:34:56;100243.34;;;20.90;93.96
70133;BME280;57495;49.922;7.966;2023-09-07T07:36:58;100246.50;;;21.00;94.36
70133;BME280;57495;49.922;7.966;2023-09-07T07:38:59;100253.66;;;21.15;92.78
70133;BME280;57495;49.922;7.966;2023-09-07T07:41:01;100254.88;;;21.05;93.07
70133;BME280;57495;49.922;7.966;2023-09-07T07:43:03;100250.72;;;21.16;92.37
70133;BME280;57495;49.922;7.966;2023-09-07T07:45:07;100249.28;;;21.40;92.24
70133;BME280;57495;49.922;7.966;2023-09-07T07:47:09;100256.19;;;21.30;92.20
70133;BME280;57495;49.922;7.966;2023-09-07T07:49:10;100250.16;;;21.48;92.35
70133;BME280;57495;49.922;7.966;2023-09-07T07:51:13;100258.72;;;21.91;89.74
70133;BME280;57495;49.922;7.966;2023-09-07T07:53:15;100249.69;;;22.04;86.85
70133;BME280;57495;49.922;7.966;2023-09-07T07:55:16;100262.22;;;22.25;86.81
70133;BME280;57495;49.922;7.966;2023-09-07T07:57:17;100260.78;;;22.36;86.08
70133;BME280;57495;49.922;7.966;2023-09-07T07:59:19;100260.28;;;22.52;83.35
70133;BME280;57495;49.922;7.966;2023-09-07T08:01:20;100250.16;;;22.73;83.77
70133;BME280;57495;49.922;7.966;2023-09-07T08:03:22;100252.53;;;22.94;80.25
70133;BME280;57495;49.922;7.966;2023-09-07T08:05:23;100257.94;;;23.08;79.80
70133;BME280;57495;49.922;7.966;2023-09-07T08:07:26;100251.97;;;23.24;80.10
70133;BME280;57495;49.922;7.966;2023-09-07T08:09:27;100254.69;;;23.56;80.04
70133;BME280;57495;49.922;7.966;2023-09-07T08:11:29;100251.78;;;23.51;77.66
70133;BME280;57495;49.922;7.966;2023-09-07T08:13:30;100257.13;;;23.64;75.20
70133;BME280;57495;49.922;7.966;2023-09-07T08:15:31;100259.84;;;23.64;76.68
70133;BME280;57495;49.922;7.966;2023-09-07T08:17:33;100248.41;;;23.74;75.58
70133;BME280;57495;49.922;7.966;2023-09-07T08:19:34;100257.59;;;23.86;73.25
70133;BME280;57495;49.922;7.966;2023-09-07T08:21:36;100255.91;;;23.85;71.89
70133;BME280;57495;49.922;7.966;2023-09-07T08:23:39;100252.44;;;23.97;73.70
70133;BME280;57495;49.922;7.966;2023-09-07T08:25:40;100252.34;;;23.85;71.14
70133;BME280;57495;49.922;7.966;2023-09-07T08:27:46;100250.03;;;24.25;72.80
70133;BME280;57495;49.922;7.966;2023-09-07T08:29:47;100248.34;;;24.43;72.17
70133;BME280;57495;49.922;7.966;2023-09-07T08:31:51;100244.38;;;24.64;72.73
70133;BME280;57495;49.922;7.966;2023-09-07T08:33:53;100241.03;;;24.62;70.71
70133;BME280;57495;49.922;7.966;2023-09-07T08:35:56;100246.22;;;24.82;72.00
70133;BME280;57495;49.922;7.966;2023-09-07T08:37:57;100238.53;;;24.91;72.65
70133;BME280;57495;49.922;7.966;2023-09-07T08:40:03;100240.38;;;25.08;70.10
70133;BME280;57495;49.922;7.966;2023-09-07T08:42:07;100232.13;;;25.27;71.07
70133;BME280;57495;49.922;7.966;2023-09-07T08:44:09;100241.22;;;25.39;69.69
70133;BME280;57495;49.922;7.966;2023-09-07T08:46:15;100238.47;;;25.51;69.32
70133;BME280;57495;49.922;7.966;2023-09-07T08:48:16;100239.44;;;25.57;67.47
70133;BME280;57495;49.922;7.966;2023-09-07T08:50:20;100233.59;;;25.65;67.81
70133;BME280;57495;49.922;7.966;2023-09-07T08:52:24;100235.19;;;25.96;69.59
70133;BME280;57495;49.922;7.966;2023-09-07T08:54:26;100240.91;;;26.07;67.77
70133;BME280;57495;49.922;7.966;2023-09-07T08:56:29;100236.69;;;26.28;66.63
70133;BME280;57495;49.922;7.966;2023-09-07T08:58:30;100241.03;;;26.12;65.03
70133;BME280;57495;49.922;7.966;2023-09-07T09:00:32;100243.78;;;26.12;64.37
70133;BME280;57495;49.922;7.966;2023-09-07T09:02:34;100243.28;;;26.15;64.87
70133;BME280;57495;49.922;7.966;2023-09-07T09:04:37;100242.69;;;26.25;64.27
70133;BME280;57495;49.922;7.966;2023-09-07T09:06:39;100234.72;;;26.52;64.85
70133;BME280;57495;49.922;7.966;2023-09-07T09:08:44;100237.56;;;26.69;64.18
70133;BME280;57495;49.922;7.966;2023-09-07T09:10:46;100230.94;;;26.81;65.68
70133;BME280;57495;49.922;7.966;2023-09-07T09:12:48;100234.84;;;26.57;62.90
70133;BME280;57495;49.922;7.966;2023-09-07T09:14:50;100237.66;;;26.86;63.51
70133;BME280;57495;49.922;7.966;2023-09-07T09:16:51;100237.91;;;27.01;63.53
70133;BME280;57495;49.922;7.966;2023-09-07T09:18:55;100237.59;;;27.14;62.25
70133;BME280;57495;49.922;7.966;2023-09-07T09:20:57;100231.09;;;27.49;63.43
70133;BME280;57495;49.922;7.966;2023-09-07T09:23:03;100236.25;;;27.63;61.70
70133;BME280;57495;49.922;7.966;2023-09-07T09:25:05;100236.78;;;27.60;66.43
70133;BME280;57495;49.922;7.966;2023-09-07T09:27:05;100235.56;;;27.55;59.66
70133;BME280;57495;49.922;7.966;2023-09-07T09:29:10;100231.81;;;27.45;59.90
70133;BME280;57495;49.922;7.966;2023-09-07T09:31:13;100235.59;;;27.89;61.05
70133;BME280;57495;49.922;7.966;2023-09-07T09:33:15;100228.94;;;27.51;57.83
70133;BME280;57495;49.922;7.966;2023-09-07T09:35:17;100235.16;;;27.98;61.59
70133;BME280;57495;49.922;7.966;2023-09-07T09:37:18;100230.50;;;28.20;61.68
70133;BME280;57495;49.922;7.966;2023-09-07T09:39:23;100232.19;;;28.21;59.04
70133;BME280;57495;49.922;7.966;2023-09-07T09:41:24;100225.56;;;27.83;56.87
70133;BME280;57495;49.922;7.966;2023-09-07T09:43:26;100231.25;;;27.93;58.05
70133;BME280;57495;49.922;7.966;2023-09-07T09:45:30;100232.25;;;28.04;59.11
70133;BME280;57495;49.922;7.966;2023-09-07T09:47:33;100227.97;;;27.96;60.51
70133;BME280;57495;49.922;7.966;2023-09-07T09:49:33;100228.41;;;27.71;58.17
70133;BME280;57495;49.922;7.966;2023-09-07T09:51:36;100218.75;;;27.52;57.52
70133;BME280;57495;49.922;7.966;2023-09-07T09:53:38;100227.25;;;28.01;61.24
70133;BME280;57495;49.922;7.966;2023-09-07T09:55:40;100217.41;;;28.27;59.69
70133;BME280;57495;49.922;7.966;2023-09-07T09:57:41;100219.72;;;28.58;60.34
70133;BME280;57495;49.922;7.966;2023-09-07T09:59:43;100217.09;;;28.46;58.23
70133;BME280;57495;49.922;7.966;2023-09-07T10:01:47;100218.81;;;28.08;55.88
70133;BME280;57495;49.922;7.966;2023-09-07T10:03:51;100211.91;;;27.88;56.27
70133;BME280;57495;49.922;7.966;2023-09-07T10:05:55;100203.22;;;27.96;56.76
70133;BME280;57495;49.922;7.966;2023-09-07T10:08:00;100207.47;;;28.48;57.40
70133;BME280;57495;49.922;7.966;2023-09-07T10:10:09;100204.38;;;28.89;58.72
70133;BME280;57495;49.922;7.966;2023-09-07T10:12:12;100204.00;;;29.07;56.60
70133;BME280;57495;49.922;7.966;2023-09-07T10:14:13;100198.69;;;29.23;55.72
70133;BME280;57495;49.922;7.966;2023-09-07T10:16:14;100202.22;;;29.51;56.31
70133;BME280;57495;49.922;7.966;2023-09-07T10:18:18;100194.41;;;29.42;56.32
70133;BME280;57495;49.922;7.966;2023-09-07T10:20:20;100192.56;;;29.53;54.94
70133;BME280;57495;49.922;7.966;2023-09-07T10:22:23;100202.97;;;29.78;56.42
70133;BME280;57495;49.922;7.966;2023-09-07T10:24:26;100190.22;;;29.72;53.67
70133;BME280;57495;49.922;7.966;2023-09-07T10:26:28;100181.78;;;29.84;54.92
70133;BME280;57495;49.922;7.966;2023-09-07T10:28:28;100186.22;;;29.90;55.38
70133;BME280;57495;49.922;7.966;2023-09-07T10:30:30;100186.75;;;29.87;54.38
70133;BME280;57495;49.922;7.966;2023-09-07T10:32:37;100187.19;;;30.21;55.34